Archival Weather

NSFA McMurdo Sound

NSFA McMurdo Sound, Antarctica (NZCM)

Report from: Friday, September 23, 2022 1:00 PM UTC
Current time: Sunday, December 4, 2022 11:54 AM UTC

Current weather
Weather history
Weather forecast

Present weatherHaze
Temperature-19.4°C (-2.9°F)
Wind chill-32.0°C (-25.6°F)
Dew point-24.2°C (-11.6°F)
Winds 17 kts (8.7 m/s, 19.6 mph) East (90°)
Wind gusts 30 kts (15.4 m/s, 34.5 mph)
Visibility3.1 mi. (5 km)
Clouds Ceiling: Overcast 2,100 ft. (640 m)
Altimeter28.61 in.Hg (969 mB)
Precip. events Snow ended 1:00 PM
Relative humidity66 %
Density altitude-2,810 ft. (-857 m)
Sea-level pressure107.0 kPa (1070 mB, 31.58 in.Hg)
Remarks Fully automated report
System requires maintenance
Special weather observation
Automated weather observing station with precipitation discriminator
Flight conditions Marginal Visual Meteorological Conditions
Raw dataSPECI NZCM 231300Z AUTO 09017G30KT 5000 HZ OVC021 M19/M24 A2861 RMK AO2 SNE1300 SLP695 T11941242 $
An error has occurred. This application may no longer respond until reloaded. Reload 🗙